Preview of NWS' New Version of Forecast
This preview is not operational and should not be used for support decisions.

Terminal Aerodrome Forecast (TAF)

Issued by National Weather Service (NWS)

                            
028 
FTUS42 KMFL 230255 AAA
TAFMIA
TAF AMD
KMIA 230255Z 2303/2406 09009KT P6SM SCT025 SCT040
     FM231400 11015G25KT P6SM SCT025 SCT040 SCT250
     FM240000 10011KT P6SM FEW025 SCT100=